Calvert City, KY

11:34 PM CST on November 25, 2014 (GMT -0600)
Barkley Regional | Change Station
CLOSE
Current Station
Airport
Location: Paducah,
Elevation: 410 ft
Nearby Weather Stations

Elev 410 ft 37.06 °N, 88.77 °W | Updated 41 minutes ago

Clear
Clear
27 °F
Feels Like 27 °F
N
0
Wind Variable Wind from North

Today
High -- | Low -- °F
--% Chance of Precip.
Yesterday
High -- | Low -- °F
Precip. -- in
6:42 AM 4:38 PM
Waxing Crescent, 16% visible
Pressure 30.19 in
Visibility 10.0 miles
Clouds Clear
Dew Point 24 °F
Humidity 89%
Rainfall 0.00 in
Snow Depth Not available.
UV 0 out of 12
Pollen 1.60 out of 12
Air Quality Not available.
Flu Activity Not available.
METAR KPAH 260453Z 00000KT 10SM CLR M03/M04 A3018 RMK AO2 SLP223 T10281044

More Conditions Fewer Conditions

Pressure 30.19 in
Visibility 10.0 miles
Clouds Clear
Dew Point 24 °F
Humidity 89%
Rainfall 0.00 in
Snow Depth Not available.
UV 0 out of 12
Pollen 1.60 out of 12
Air Quality Not available.
Flu Activity Not available.
METAR KPAH 260453Z 00000KT 10SM CLR M03/M04 A3018 RMK AO2 SLP223 T10281044

More Conditions Fewer Conditions

10-Day Weather Forecast

Almanac

Astronomy

Nov. 25, 2014 Rise Set
Actual Time
Civil Twilight
Nautical Twilight
Astronomical Twilight
Moon
Length of Visible Light
Length of Day
Tomorrow will be .
, % of the Moon is Illuminated

Today's Extremes

State Highs State Lows

Community

WunderPhotos

Upload Photos

1,773,683 photos uploaded!

WunderBlogs® & News

Nearby

Air Quality

  Air Quality AQ Index Pollutant
Not available.

Snow Depth

Station Depth Elevation

Earthquake Activity

City Distance Mag. Time & Date
Minimum magnitude displayed is 2.5.

Coastal Water Temperatures

Place Temperature

Nearby Weather Stations